createdAt,value
2022-12-14T00:01:49.233Z,0.50
2022-12-14T00:04:17.753Z,2.25
2022-12-14T00:06:45.619Z,1.00
2022-12-14T00:09:13.075Z,1.00
2022-12-14T00:11:40.414Z,0.75
2022-12-14T00:14:08.249Z,1.50
2022-12-14T00:16:35.671Z,2.50
2022-12-14T00:19:05.724Z,0.25
2022-12-14T00:21:33.943Z,1.00
2022-12-14T00:24:01.364Z,0.00
2022-12-14T00:26:32.933Z,0.25
2022-12-14T00:29:01.939Z,0.00
2022-12-14T00:31:30.368Z,0.00
2022-12-14T00:33:57.935Z,1.00
2022-12-14T00:36:25.291Z,0.00
2022-12-14T00:38:52.705Z,0.75
2022-12-14T00:41:19.982Z,0.00
2022-12-14T00:43:49.422Z,3.00
2022-12-14T00:46:18.211Z,0.00
2022-12-14T00:48:46.835Z,0.75
2022-12-14T00:51:15.283Z,0.00
2022-12-14T00:53:44.753Z,0.00
2022-12-14T00:56:12.896Z,3.75
2022-12-14T00:58:40.185Z,0.00
2022-12-14T01:01:14.845Z,0.00
2022-12-14T01:03:43.061Z,0.00
2022-12-14T01:06:17.896Z,2.50
2022-12-14T01:08:45.331Z,0.00
2022-12-14T01:11:13.153Z,0.75
2022-12-14T01:13:41.989Z,0.00
2022-12-14T01:16:14.864Z,2.25
2022-12-14T01:18:43.745Z,0.75
2022-12-14T01:21:12.383Z,2.50
2022-12-14T01:23:40.307Z,0.00
2022-12-14T01:26:07.808Z,1.00
2022-12-14T01:28:35.300Z,2.00
2022-12-14T01:31:15.112Z,0.00
2022-12-14T01:33:43.253Z,3.00
2022-12-14T01:36:14.217Z,0.00
2022-12-14T01:38:41.579Z,0.00
2022-12-14T01:41:16.226Z,3.50
2022-12-14T01:43:55.817Z,0.25
2022-12-14T01:46:44.403Z,1.50
2022-12-14T01:49:11.888Z,1.00
2022-12-14T01:51:41.453Z,0.25
2022-12-14T01:54:13.098Z,3.00
2022-12-14T01:56:44.978Z,3.25
2022-12-14T01:59:19.045Z,5.50
2022-12-14T02:01:48.317Z,3.00
2022-12-14T02:04:18.818Z,1.00
2022-12-14T02:06:49.172Z,0.50
2022-12-14T02:09:22.095Z,1.00
2022-12-14T02:12:16.060Z,2.50
2022-12-14T02:14:44.655Z,1.75
2022-12-14T02:17:14.010Z,2.00
2022-12-14T02:19:44.191Z,2.50
2022-12-14T02:22:11.582Z,0.75
2022-12-14T02:24:48.129Z,3.00
2022-12-14T02:27:37.302Z,3.00
2022-12-14T02:30:21.568Z,1.50
2022-12-14T02:33:07.097Z,1.75
2022-12-14T02:35:49.540Z,1.00
2022-12-14T02:38:19.738Z,3.00
2022-12-14T02:41:08.576Z,3.00
2022-12-14T02:43:58.429Z,2.50
2022-12-14T02:46:34.186Z,2.75
2022-12-14T02:49:26.568Z,3.00
2022-12-14T02:52:12.075Z,1.00
2022-12-14T02:55:01.927Z,2.75
2022-12-14T02:57:53.307Z,3.00
2022-12-14T03:00:21.349Z,1.00
2022-12-14T03:02:50.205Z,5.00
2022-12-14T03:05:18.168Z,0.50
2022-12-14T03:07:54.862Z,2.50
2022-12-14T03:10:46.307Z,1.00
2022-12-14T03:13:25.683Z,0.50
2022-12-14T03:16:13.722Z,0.25
2022-12-14T03:19:10.916Z,2.33
2022-12-14T03:21:44.578Z,2.50
2022-12-14T03:24:15.939Z,3.00
2022-12-14T03:26:53.686Z,1.00
2022-12-14T03:29:30.030Z,1.00
2022-12-14T03:32:02.713Z,5.50
2022-12-14T03:34:46.304Z,3.25
2022-12-14T03:37:20.405Z,0.50
2022-12-14T03:39:48.340Z,3.00
2022-12-14T03:42:31.406Z,4.00
2022-12-14T03:45:12.814Z,3.00
2022-12-14T03:48:11.106Z,3.00
2022-12-14T03:50:52.041Z,4.00
2022-12-14T03:53:39.006Z,3.00
2022-12-14T03:56:28.098Z,1.50
2022-12-14T03:59:11.796Z,6.00
2022-12-14T04:01:42.431Z,0.75
2022-12-14T04:04:36.188Z,0.25
2022-12-14T04:07:24.890Z,4.50
2022-12-14T04:10:32.528Z,0.50
2022-12-14T04:13:34.773Z,2.00
2022-12-14T04:16:27.572Z,2.25
2022-12-14T04:19:01.399Z,2.50
2022-12-14T04:21:55.741Z,4.50
2022-12-14T04:25:05.662Z,2.50
2022-12-14T04:27:53.780Z,3.00
2022-12-14T04:30:21.097Z,0.75
2022-12-14T04:33:26.076Z,1.00
2022-12-14T04:35:56.701Z,4.25
2022-12-14T04:38:33.884Z,3.00
2022-12-14T04:41:13.395Z,1.50
2022-12-14T04:43:44.866Z,0.25
2022-12-14T04:46:21.063Z,1.50
2022-12-14T04:49:27.353Z,5.50
2022-12-14T04:52:13.339Z,5.00
2022-12-14T04:55:02.431Z,1.75
2022-12-14T04:57:36.707Z,0.25
2022-12-14T05:00:05.840Z,1.25
2022-12-14T05:02:52.503Z,0.00
2022-12-14T05:06:05.284Z,3.75
2022-12-14T05:08:47.798Z,3.50
2022-12-14T05:14:46.561Z,3.75
2022-12-14T05:17:15.309Z,1.00
2022-12-14T05:19:50.353Z,3.75
2022-12-14T05:22:18.681Z,1.00
2022-12-14T05:24:46.397Z,1.00
2022-12-14T05:27:14.094Z,0.25
2022-12-14T05:29:41.518Z,1.50
2022-12-14T05:32:11.357Z,1.00
2022-12-14T05:34:39.400Z,1.00
2022-12-14T05:37:06.741Z,3.75
2022-12-14T05:39:33.934Z,0.75
2022-12-14T05:42:01.313Z,3.00
2022-12-14T05:44:28.536Z,3.75
2022-12-14T05:46:56.321Z,3.00
2022-12-14T05:49:23.687Z,1.00
2022-12-14T05:51:51.259Z,1.50
2022-12-14T05:54:18.879Z,6.00
2022-12-14T05:56:46.448Z,1.50
2022-12-14T05:59:16.041Z,3.00
2022-12-14T06:01:45.566Z,1.00
2022-12-14T06:04:18.526Z,4.50
2022-12-14T06:06:46.476Z,2.00
2022-12-14T06:09:16.340Z,0.75
2022-12-14T06:11:45.641Z,1.50
2022-12-14T06:14:14.171Z,1.75
2022-12-14T06:16:43.405Z,2.50
2022-12-14T06:19:12.163Z,2.00
2022-12-14T06:21:41.327Z,1.00
2022-12-14T06:24:11.208Z,1.00
2022-12-14T06:26:42.473Z,0.25
2022-12-14T06:29:18.844Z,3.25
2022-12-14T06:31:49.164Z,2.00
2022-12-14T06:34:18.563Z,0.75
2022-12-14T06:36:47.437Z,1.00
2022-12-14T06:39:17.353Z,2.50
2022-12-14T06:41:49.114Z,6.25
2022-12-14T06:44:16.885Z,1.00
2022-12-14T06:46:45.072Z,0.00
2022-12-14T06:49:15.130Z,3.00
2022-12-14T06:51:44.644Z,1.00
2022-12-14T06:54:13.479Z,2.00
2022-12-14T06:56:42.641Z,3.00
2022-12-14T06:59:10.513Z,4.50
2022-12-14T07:01:38.938Z,3.00
2022-12-14T07:04:07.526Z,3.00
2022-12-14T07:06:38.038Z,2.00
2022-12-14T07:09:07.517Z,0.50
2022-12-14T07:11:35.579Z,0.00
2022-12-14T07:14:07.521Z,1.00
2022-12-14T07:16:37.252Z,0.33
2022-12-14T07:19:05.311Z,1.00
2022-12-14T07:21:34.117Z,1.50
2022-12-14T07:24:02.278Z,0.75
2022-12-14T07:26:30.837Z,1.50
2022-12-14T07:29:00.925Z,1.00
2022-12-14T07:31:29.714Z,1.00
2022-12-14T07:33:59.802Z,0.00
2022-12-14T07:36:29.866Z,2.50
2022-12-14T07:38:57.812Z,2.25
2022-12-14T07:41:29.637Z,1.00
2022-12-14T07:43:59.038Z,1.00
2022-12-14T07:46:29.089Z,0.00
2022-12-14T07:48:57.911Z,0.50
2022-12-14T07:51:31.399Z,1.50
2022-12-14T07:54:01.285Z,4.75
2022-12-14T07:56:32.117Z,0.00
2022-12-14T07:59:03.118Z,2.75
2022-12-14T08:01:34.132Z,2.50
2022-12-14T08:04:09.400Z,1.50
2022-12-14T08:06:38.513Z,1.50
2022-12-14T08:09:07.235Z,3.25
2022-12-14T08:11:35.234Z,1.00
2022-12-14T08:14:05.327Z,2.00
2022-12-14T08:16:33.476Z,1.00
2022-12-14T08:19:01.837Z,2.00
2022-12-14T08:21:30.646Z,2.00
2022-12-14T08:23:59.133Z,4.75
2022-12-14T08:26:34.883Z,3.00
2022-12-14T08:29:04.718Z,2.50
2022-12-14T08:31:33.063Z,3.25
2022-12-14T08:34:01.722Z,1.00
2022-12-14T08:36:32.965Z,3.00
2022-12-14T08:39:02.997Z,3.75
2022-12-14T08:41:31.722Z,4.00
2022-12-14T08:44:01.337Z,7.00
2022-12-14T08:46:31.473Z,5.50
2022-12-14T08:48:59.815Z,4.00
2022-12-14T08:51:28.796Z,3.00
2022-12-14T08:53:57.444Z,6.00
2022-12-14T08:56:27.812Z,1.00
2022-12-14T08:58:56.920Z,3.75
2022-12-14T09:01:33.287Z,1.75
2022-12-14T09:04:07.007Z,4.00
2022-12-14T09:06:37.935Z,2.00
2022-12-14T09:09:16.079Z,4.00
2022-12-14T09:11:45.537Z,6.25
2022-12-14T09:14:13.361Z,3.50
2022-12-14T09:16:41.175Z,4.50
2022-12-14T09:19:09.201Z,3.00
2022-12-14T09:21:36.879Z,11.00
2022-12-14T09:24:05.681Z,9.00
2022-12-14T09:26:34.060Z,3.00
2022-12-14T09:29:01.485Z,3.00
2022-12-14T09:31:29.558Z,8.25
2022-12-14T09:33:57.279Z,4.00
2022-12-14T09:36:27.639Z,8.50
2022-12-14T09:38:58.112Z,6.00
2022-12-14T09:41:35.531Z,1.00
2022-12-14T09:44:25.269Z,5.75
2022-12-14T09:47:04.971Z,6.50
2022-12-14T09:49:38.580Z,9.00
2022-12-14T09:52:13.116Z,6.75
2022-12-14T09:54:40.911Z,6.25
2022-12-14T09:57:35.354Z,10.00
2022-12-14T10:00:04.681Z,10.00
2022-12-14T10:03:06.523Z,12.75
2022-12-14T10:05:59.495Z,8.00
2022-12-14T10:08:52.681Z,9.50
2022-12-14T10:11:45.355Z,9.25
2022-12-14T10:14:44.309Z,10.00
2022-12-14T10:17:31.525Z,11.25
2022-12-14T10:20:22.085Z,6.00
2022-12-14T10:22:55.595Z,12.25
2022-12-14T10:25:32.895Z,16.50
2022-12-14T10:28:11.947Z,10.00
2022-12-14T10:30:42.530Z,15.00
2022-12-14T10:33:29.997Z,13.25
2022-12-14T10:36:15.937Z,7.50
2022-12-14T10:39:07.456Z,6.50
2022-12-14T10:41:42.820Z,6.25
2022-12-14T10:44:22.711Z,8.00
2022-12-14T10:46:56.270Z,11.75
2022-12-14T10:49:38.805Z,6.00
2022-12-14T10:52:36.114Z,10.75
2022-12-14T10:55:11.428Z,11.75
2022-12-14T10:57:39.232Z,15.00
2022-12-14T11:00:22.616Z,12.00
2022-12-14T11:02:54.969Z,13.00
2022-12-14T11:05:36.144Z,15.00
2022-12-14T11:08:07.930Z,11.00
2022-12-14T11:10:39.733Z,13.00
2022-12-14T11:13:13.609Z,6.50
2022-12-14T11:15:46.035Z,11.50
2022-12-14T11:18:31.741Z,16.50
2022-12-14T11:21:05.855Z,13.50
2022-12-14T11:23:46.363Z,17.00
2022-12-14T11:26:21.266Z,16.25
2022-12-14T11:28:57.418Z,2.75
2022-12-14T11:31:34.802Z,7.75
2022-12-14T11:34:05.215Z,7.00
2022-12-14T11:36:40.771Z,8.00
2022-12-14T11:39:14.247Z,9.50
2022-12-14T11:41:48.443Z,7.50
2022-12-14T11:44:18.616Z,14.25
2022-12-14T11:47:02.177Z,15.25
2022-12-14T11:49:40.530Z,10.75
2022-12-14T11:52:14.445Z,11.75
2022-12-14T11:54:49.708Z,3.40
2022-12-14T11:57:35.962Z,10.00
2022-12-14T12:00:31.164Z,7.80
2022-12-14T12:03:06.794Z,9.60
2022-12-14T12:05:41.139Z,8.80
2022-12-14T12:08:33.525Z,5.60
2022-12-14T12:11:05.456Z,9.20
2022-12-14T12:13:35.638Z,7.80
2022-12-14T12:16:11.964Z,3.20
2022-12-14T12:18:56.403Z,11.50
2022-12-14T12:21:32.522Z,7.75
2022-12-14T12:24:02.913Z,10.00
2022-12-14T12:26:52.397Z,11.00
2022-12-14T12:29:45.043Z,6.25
2022-12-14T12:32:31.202Z,1.00
2022-12-14T12:35:12.505Z,6.25
2022-12-14T12:37:51.260Z,4.50
2022-12-14T12:40:39.738Z,4.00
2022-12-14T12:43:27.824Z,10.75
2022-12-14T12:46:05.830Z,5.75
2022-12-14T12:48:40.341Z,7.00
2022-12-14T12:51:14.761Z,4.50
2022-12-14T12:53:47.444Z,5.00
2022-12-14T12:56:37.618Z,6.25
2022-12-14T12:59:06.258Z,9.50
2022-12-14T13:01:38.919Z,6.25
2022-12-14T13:04:12.675Z,3.75
2022-12-14T13:06:49.235Z,6.50
2022-12-14T13:09:40.366Z,6.25
2022-12-14T13:12:26.362Z,8.50
2022-12-14T13:14:56.238Z,6.00
2022-12-14T13:17:44.675Z,1.50
2022-12-14T13:20:21.043Z,4.00
2022-12-14T13:22:49.704Z,5.50
2022-12-14T13:25:48.153Z,4.75
2022-12-14T13:28:56.757Z,3.50
2022-12-14T13:31:43.761Z,4.50
2022-12-14T13:34:16.784Z,8.00
2022-12-14T13:37:03.677Z,3.75
2022-12-14T13:40:01.985Z,5.25
2022-12-14T13:42:35.759Z,3.50
2022-12-14T13:45:06.268Z,6.75
2022-12-14T13:47:49.078Z,3.00
2022-12-14T13:50:49.792Z,3.50
2022-12-14T13:53:43.636Z,3.00
2022-12-14T13:56:26.468Z,4.50
2022-12-14T13:59:00.317Z,10.25
2022-12-14T14:01:46.577Z,11.25
2022-12-14T14:04:17.542Z,6.25
2022-12-14T14:06:52.745Z,5.00
2022-12-14T14:09:26.630Z,7.00
2022-12-14T14:12:01.597Z,6.50
2022-12-14T14:14:52.042Z,6.00
2022-12-14T14:17:42.405Z,3.00
2022-12-14T14:20:33.737Z,5.50
2022-12-14T14:23:32.836Z,7.25
2022-12-14T14:26:26.920Z,6.50
2022-12-14T14:29:15.581Z,7.25
2022-12-14T14:31:53.541Z,5.75
2022-12-14T14:34:40.966Z,6.25
2022-12-14T14:37:20.640Z,1.50
2022-12-14T14:40:25.989Z,11.67
2022-12-14T14:42:56.764Z,8.50
2022-12-14T14:45:34.841Z,6.00
2022-12-14T14:48:28.657Z,6.33
2022-12-14T14:51:18.022Z,12.33
2022-12-14T14:53:45.554Z,13.00
2022-12-14T14:56:37.548Z,4.67
2022-12-14T14:59:20.520Z,1.00
2022-12-14T15:02:03.897Z,7.67
2022-12-14T15:05:17.592Z,9.00
2022-12-14T15:07:45.728Z,19.50
2022-12-14T15:10:38.891Z,11.50
2022-12-14T15:13:15.079Z,3.67
2022-12-14T15:15:50.042Z,13.67
2022-12-14T15:18:24.869Z,4.00
2022-12-14T15:21:11.524Z,9.00
2022-12-14T15:23:50.026Z,12.50
2022-12-14T15:26:30.594Z,13.75
2022-12-14T15:29:01.244Z,4.00
2022-12-14T15:31:42.186Z,7.00
2022-12-14T15:34:19.767Z,6.00
2022-12-14T15:36:47.768Z,6.00
2022-12-14T15:39:29.434Z,5.00
2022-12-14T15:42:11.271Z,4.00
2022-12-14T15:44:44.046Z,9.00
2022-12-14T15:47:29.358Z,6.00
2022-12-14T15:50:14.762Z,7.75
2022-12-14T15:52:44.199Z,10.25
2022-12-14T15:55:35.356Z,7.50
2022-12-14T15:58:29.705Z,10.75
2022-12-14T16:01:03.591Z,7.00
2022-12-14T16:03:43.649Z,3.50
2022-12-14T16:06:13.628Z,2.00
2022-12-14T16:08:53.974Z,7.00
2022-12-14T16:11:32.174Z,12.75
2022-12-14T16:14:05.701Z,10.00
2022-12-14T16:16:33.258Z,4.00
2022-12-14T16:19:25.285Z,5.50
2022-12-14T16:22:10.435Z,4.00
2022-12-14T16:24:38.647Z,3.00
2022-12-14T16:27:24.542Z,11.00
2022-12-14T16:30:22.348Z,6.50
2022-12-14T16:32:53.312Z,10.75
2022-12-14T16:35:26.589Z,6.50
2022-12-14T16:37:55.983Z,10.50
2022-12-14T16:40:38.851Z,11.50
2022-12-14T16:43:24.046Z,11.25
2022-12-14T16:46:09.330Z,13.75
2022-12-14T16:49:07.768Z,9.50
2022-12-14T16:52:06.735Z,11.25
2022-12-14T16:54:33.960Z,7.50
2022-12-14T16:57:22.784Z,3.75
2022-12-14T16:59:59.890Z,14.25
2022-12-14T17:02:27.504Z,14.00
2022-12-14T17:04:55.875Z,6.00
2022-12-14T17:07:27.375Z,5.50
2022-12-14T17:09:56.604Z,8.75
2022-12-14T17:12:25.683Z,15.75
2022-12-14T17:14:53.783Z,8.00
2022-12-14T17:17:33.935Z,7.33
2022-12-14T17:20:06.759Z,11.50
2022-12-14T17:22:36.670Z,4.00
2022-12-14T17:25:03.981Z,12.00
2022-12-14T17:27:31.519Z,18.50
2022-12-14T17:29:58.815Z,11.50
2022-12-14T17:32:30.585Z,11.75
2022-12-14T17:34:59.108Z,14.50
2022-12-14T17:37:32.389Z,6.50
2022-12-14T17:40:01.810Z,18.75
2022-12-14T17:42:29.276Z,12.75
2022-12-14T17:44:58.237Z,9.75
2022-12-14T17:47:25.731Z,13.00
2022-12-14T17:49:53.088Z,15.25
2022-12-14T17:52:24.913Z,14.50
2022-12-14T17:54:52.167Z,13.50
2022-12-14T17:57:24.252Z,9.50
2022-12-14T18:00:10.831Z,10.50
2022-12-14T18:02:40.047Z,18.00
2022-12-14T18:05:12.152Z,7.00
2022-12-14T18:07:39.434Z,9.75
2022-12-14T18:10:07.066Z,9.00
2022-12-14T18:12:34.377Z,16.75
2022-12-14T18:15:01.702Z,10.75
2022-12-14T18:17:28.972Z,4.00
2022-12-14T18:19:56.174Z,9.75
2022-12-14T18:22:23.571Z,4.50
2022-12-14T18:24:50.781Z,13.00
2022-12-14T18:27:18.669Z,7.50
2022-12-14T18:29:45.898Z,15.75
2022-12-14T18:32:14.911Z,11.00
2022-12-14T18:34:42.086Z,15.25
2022-12-14T18:37:09.282Z,9.00
2022-12-14T18:39:36.603Z,14.50
2022-12-14T18:42:04.125Z,7.00
2022-12-14T18:44:31.342Z,8.00
2022-12-14T18:47:14.640Z,8.25
2022-12-14T18:49:46.189Z,12.00
2022-12-14T18:52:13.468Z,15.00
2022-12-14T18:54:40.867Z,9.75
2022-12-14T18:57:08.436Z,10.00
2022-12-14T18:59:42.126Z,6.50
2022-12-14T19:02:15.811Z,9.25
2022-12-14T19:04:50.761Z,6.00
2022-12-14T19:07:18.457Z,17.75
2022-12-14T19:09:46.315Z,12.75
2022-12-14T19:12:14.197Z,8.00
2022-12-14T19:14:42.124Z,10.00
2022-12-14T19:17:09.847Z,6.25
2022-12-14T19:19:42.704Z,4.00
2022-12-14T19:22:12.785Z,9.00
2022-12-14T19:24:40.726Z,15.75
2022-12-14T19:27:08.707Z,9.75
2022-12-14T19:29:37.169Z,11.00
2022-12-14T19:32:06.173Z,18.25
2022-12-14T19:34:34.561Z,5.00
2022-12-14T19:37:02.907Z,13.50
2022-12-14T19:39:30.676Z,19.00
2022-12-14T19:41:58.920Z,14.50
2022-12-14T19:44:27.911Z,9.00
2022-12-14T19:46:55.562Z,10.00
2022-12-14T19:49:22.961Z,18.25
2022-12-14T19:51:50.554Z,13.75
2022-12-14T19:54:17.994Z,7.00
2022-12-14T19:56:45.829Z,7.50
2022-12-14T19:59:16.836Z,12.50
2022-12-14T20:01:48.022Z,19.50
2022-12-14T20:04:16.884Z,16.50
2022-12-14T20:06:44.586Z,14.50
2022-12-14T20:09:15.857Z,24.50
2022-12-14T20:11:44.128Z,15.75
2022-12-14T20:14:12.913Z,3.50
2022-12-14T20:16:40.517Z,13.50
2022-12-14T20:19:09.079Z,15.00
2022-12-14T20:21:36.394Z,8.75
2022-12-14T20:24:03.674Z,11.00
2022-12-14T20:26:31.051Z,15.00
2022-12-14T20:29:01.431Z,15.25
2022-12-14T20:31:29.020Z,16.00
2022-12-14T20:33:58.971Z,13.00
2022-12-14T20:36:26.720Z,9.50
2022-12-14T20:39:01.669Z,7.50
2022-12-14T20:41:29.871Z,15.50
2022-12-14T20:43:57.183Z,12.00
2022-12-14T20:46:29.122Z,10.00
2022-12-14T20:48:57.457Z,14.25
2022-12-14T20:51:24.804Z,8.00
2022-12-14T20:53:52.231Z,12.00
2022-12-14T20:56:20.798Z,6.00
2022-12-14T20:58:48.649Z,24.50
2022-12-14T21:01:18.446Z,9.25
2022-12-14T21:03:49.002Z,13.25
2022-12-14T21:06:19.295Z,7.75
2022-12-14T21:09:04.952Z,9.50
2022-12-14T21:12:16.567Z,5.50
2022-12-14T21:14:44.930Z,38.25
2022-12-14T21:17:12.175Z,19.75
2022-12-14T21:19:40.341Z,28.50
2022-12-14T21:22:10.345Z,18.00
2022-12-14T21:25:01.602Z,14.25
2022-12-14T21:27:27.975Z,17.75
2022-12-14T21:29:55.443Z,18.75
2022-12-14T21:32:23.315Z,12.00
2022-12-14T21:34:51.005Z,6.00
2022-12-14T21:37:18.630Z,22.00
2022-12-14T21:39:52.242Z,12.75
2022-12-14T21:42:25.157Z,16.50
2022-12-14T21:44:53.970Z,9.25
2022-12-14T21:47:25.727Z,12.75
2022-12-14T21:49:53.349Z,11.75
2022-12-14T21:52:26.771Z,20.75
2022-12-14T21:54:54.115Z,21.25
2022-12-14T21:57:42.546Z,23.00
2022-12-14T22:00:11.286Z,21.75
2022-12-14T22:02:42.095Z,8.00
2022-12-14T22:05:10.701Z,25.25
2022-12-14T22:07:38.022Z,19.50
2022-12-14T22:10:06.041Z,22.75
2022-12-14T22:12:33.401Z,10.50
2022-12-14T22:15:00.725Z,37.00
2022-12-14T22:17:28.066Z,21.50
2022-12-14T22:19:55.590Z,13.25
2022-12-14T22:22:23.538Z,12.00
2022-12-14T22:24:51.549Z,12.75
2022-12-14T22:27:19.565Z,20.00
2022-12-14T22:29:47.156Z,12.00
2022-12-14T22:32:14.979Z,7.00
2022-12-14T22:34:42.603Z,37.67
2022-12-14T22:37:10.114Z,32.67
2022-12-14T22:39:37.470Z,30.00
2022-12-14T22:42:04.816Z,12.50
2022-12-14T22:44:32.027Z,19.25
2022-12-14T22:46:59.256Z,20.00
2022-12-14T22:49:26.683Z,7.25
2022-12-14T22:51:53.941Z,16.75
2022-12-14T22:54:28.111Z,10.25
2022-12-14T22:57:01.338Z,14.75
2022-12-14T22:59:48.721Z,19.50
2022-12-14T23:02:16.323Z,17.75
2022-12-14T23:04:43.847Z,43.00
2022-12-14T23:07:11.211Z,50.67
2022-12-14T23:09:57.226Z,32.75
2022-12-14T23:12:42.980Z,31.00
2022-12-14T23:15:29.604Z,13.75
2022-12-14T23:18:23.160Z,34.67
2022-12-14T23:21:08.846Z,8.75
2022-12-14T23:23:58.824Z,15.50
2022-12-14T23:26:45.337Z,29.75
2022-12-14T23:29:31.779Z,6.00
2022-12-14T23:32:17.793Z,16.00
2022-12-14T23:35:03.417Z,19.25
2022-12-14T23:37:49.601Z,15.00
2022-12-14T23:40:35.391Z,50.67
2022-12-14T23:43:33.799Z,20.25
2022-12-14T23:46:20.632Z,22.50
2022-12-14T23:49:10.541Z,6.00
2022-12-14T23:52:01.162Z,17.25
2022-12-14T23:54:46.768Z,12.00
2022-12-14T23:57:32.561Z,36.67
